Black River (Missouri), Poplar Bluff (07063000)

StateMissouriLatestGood (1290 cfs)
RiverBlack RiverRatingObservedEstimated
Updated2020-08-14 5:15 (42 minutes ago)Flood - The river is flooding. Obstacles can be treacherous or deadly. The river should be avoided at this stage for casual trips and definitely for the inexperienced. Trips should be attempted only with protective gear and equipment.Flood(none)4089
Discharge1290 cfs (median: 501 cfs)High - The river is high and potentially dangerous, especially for the young and / or inexperienced. Normal stream obstacles are sometimes difficult to navigate. Extended distances can be attempted, but canoe travel may not be advisable.High(none)1897
Height2.8 feetGood - Conditions are ideal for a canoe or kayak. Boats typically will drag on fewer than one-quarter of riffles, if at all, and portages are unnecessary or rare. Normal float lengths can be attempted without a problem.Good(none)962
TrendFalling (rising over 24 hours)Low - River is low but can still be floated. Some riffles are okay but most come with significant dragging and might need a portage. Float lengths should be reduced to accommodate low flow, dragging, and portages.Low(none)636
USGSExternal icon USGS Site (External icon Google Maps)Poor - River is too low to float comfortably. Most or all riffles will drag or must be portaged and some obstacles (such as slick shelf rock) cause undue problems. Avoid the river at this stage for casual paddling trips.Poor(none)338

Trending Data

Plot Image

Trips for Black River (Missouri), Poplar Bluff (07063000)

DateStartEndDistanceConditionDischargeHeightFishingDetails

A total of 0 rows are displayed.

Condition Descriptions

Fishing Conditions

Fish Species

Notes

Classic Trip List

The classic River Trips application is still available for use. It is updated with the new system using a data retrofit. It is no longer maintained. The original River Trips application is no longer updated (as of 1 Dec 2016) but can be checked for errors or for the condition of the data before it was converted to the new system.

Gauge Data Table

ObservationHeightDischargeMaximum
Discharge
Minimum
Discharge
Mean
Discharge
P05P10P20P25P50
(Median)
P75P80P90P95
2020-08-14 05:15 2.80 1290 5710 (2016) 281 (1954) 804 302 335 370 407 501 654 722 1890 3280
2020-08-14 04:15 2.84 1310 5710 (2016) 281 (1954) 804 302 335 370 407 501 654 722 1890 3280
2020-08-14 03:15 2.90 1330 5710 (2016) 281 (1954) 804 302 335 370 407 501 654 722 1890 3280
2020-08-14 02:15 2.95 1350 5710 (2016) 281 (1954) 804 302 335 370 407 501 654 722 1890 3280
2020-08-14 01:15 3.00 1360 5710 (2016) 281 (1954) 804 302 335 370 407 501 654 722 1890 3280
2020-08-14 00:15 3.08 1390 5710 (2016) 281 (1954) 804 302 335 370 407 501 654 722 1890 3280
2020-08-13 23:15 3.14 1410 3750 (2013) 278 (1954) 738 311 344 366 408 502 629 748 1650 2450
2020-08-13 22:15 3.20 1430 3750 (2013) 278 (1954) 738 311 344 366 408 502 629 748 1650 2450
2020-08-13 21:15 3.29 1460 3750 (2013) 278 (1954) 738 311 344 366 408 502 629 748 1650 2450
2020-08-13 20:15 3.35 1480 3750 (2013) 278 (1954) 738 311 344 366 408 502 629 748 1650 2450
2020-08-13 19:15 3.42 1510 3750 (2013) 278 (1954) 738 311 344 366 408 502 629 748 1650 2450
2020-08-13 18:15 3.50 1540 3750 (2013) 278 (1954) 738 311 344 366 408 502 629 748 1650 2450
2020-08-13 17:15 3.57 1560 3750 (2013) 278 (1954) 738 311 344 366 408 502 629 748 1650 2450
2020-08-13 16:15 3.65 3750 (2013) 278 (1954) 738 311 344 366 408 502 629 748 1650 2450
2020-08-13 15:15 3.71 1610 3750 (2013) 278 (1954) 738 311 344 366 408 502 629 748 1650 2450
2020-08-13 14:15 3.79 1640 3750 (2013) 278 (1954) 738 311 344 366 408 502 629 748 1650 2450
2020-08-13 13:15 3.85 1660 3750 (2013) 278 (1954) 738 311 344 366 408 502 629 748 1650 2450
2020-08-13 12:15 3.89 1670 3750 (2013) 278 (1954) 738 311 344 366 408 502 629 748 1650 2450
2020-08-13 11:15 3.91 1680 3750 (2013) 278 (1954) 738 311 344 366 408 502 629 748 1650 2450
2020-08-13 10:15 3.90 1680 3750 (2013) 278 (1954) 738 311 344 366 408 502 629 748 1650 2450
2020-08-13 09:15 3.87 1670 3750 (2013) 278 (1954) 738 311 344 366 408 502 629 748 1650 2450
2020-08-13 08:15 3.73 1620 3750 (2013) 278 (1954) 738 311 344 366 408 502 629 748 1650 2450
2020-08-13 07:15 3.55 1550 3750 (2013) 278 (1954) 738 311 344 366 408 502 629 748 1650 2450
2020-08-13 06:15 3.30 1470 3750 (2013) 278 (1954) 738 311 344 366 408 502 629 748 1650 2450
2020-08-13 05:15 3.04 1380 3750 (2013) 278 (1954) 738 311 344 366 408 502 629 748 1650 2450
2020-08-13 04:15 2.76 1280 3750 (2013) 278 (1954) 738 311 344 366 408 502 629 748 1650 2450
2020-08-13 03:15 2.53 1200 3750 (2013) 278 (1954) 738 311 344 366 408 502 629 748 1650 2450
2020-08-13 02:15 2.34 1140 3750 (2013) 278 (1954) 738 311 344 366 408 502 629 748 1650 2450
2020-08-13 01:15 2.20 1090 3750 (2013) 278 (1954) 738 311 344 366 408 502 629 748 1650 2450
2020-08-13 00:15 2.15 1070 3750 (2013) 278 (1954) 738 311 344 366 408 502 629 748 1650 2450
2020-08-12 23:15 2.15 1070 3390 (2013) 278 (1954) 709 316 351 370 408 502 607 767 1390 2560
2020-08-12 22:15 2.18 1080 3390 (2013) 278 (1954) 709 316 351 370 408 502 607 767 1390 2560
2020-08-12 21:15 2.21 1090 3390 (2013) 278 (1954) 709 316 351 370 408 502 607 767 1390 2560
2020-08-12 20:15 2.24 1100 3390 (2013) 278 (1954) 709 316 351 370 408 502 607 767 1390 2560
2020-08-12 19:15 2.27 1110 3390 (2013) 278 (1954) 709 316 351 370 408 502 607 767 1390 2560
2020-08-12 18:15 2.32 1130 3390 (2013) 278 (1954) 709 316 351 370 408 502 607 767 1390 2560
2020-08-12 17:15 2.37 1150 3390 (2013) 278 (1954) 709 316 351 370 408 502 607 767 1390 2560
2020-08-12 16:15 2.41 1160 3390 (2013) 278 (1954) 709 316 351 370 408 502 607 767 1390 2560
2020-08-12 15:15 2.47 1180 3390 (2013) 278 (1954) 709 316 351 370 408 502 607 767 1390 2560
2020-08-12 14:15 2.52 1200 3390 (2013) 278 (1954) 709 316 351 370 408 502 607 767 1390 2560
2020-08-12 13:15 2.58 1220 3390 (2013) 278 (1954) 709 316 351 370 408 502 607 767 1390 2560
2020-08-12 12:15 2.65 1240 3390 (2013) 278 (1954) 709 316 351 370 408 502 607 767 1390 2560
2020-08-12 11:15 2.72 1270 3390 (2013) 278 (1954) 709 316 351 370 408 502 607 767 1390 2560
2020-08-12 10:15 2.79 1290 3390 (2013) 278 (1954) 709 316 351 370 408 502 607 767 1390 2560
2020-08-12 09:15 2.84 1310 3390 (2013) 278 (1954) 709 316 351 370 408 502 607 767 1390 2560
2020-08-12 08:15 2.89 1320 3390 (2013) 278 (1954) 709 316 351 370 408 502 607 767 1390 2560
2020-08-12 07:15 2.94 1340 3390 (2013) 278 (1954) 709 316 351 370 408 502 607 767 1390 2560
2020-08-12 06:15 2.97 1350 3390 (2013) 278 (1954) 709 316 351 370 408 502 607 767 1390 2560
2020-08-12 05:15 3.00 1360 3390 (2013) 278 (1954) 709 316 351 370 408 502 607 767 1390 2560
2020-08-12 04:15 2.98 1360 3390 (2013) 278 (1954) 709 316 351 370 408 502 607 767 1390 2560
2020-08-12 03:15 2.96 1350 3390 (2013) 278 (1954) 709 316 351 370 408 502 607 767 1390 2560
2020-08-12 02:15 2.92 1330 3390 (2013) 278 (1954) 709 316 351 370 408 502 607 767 1390 2560
2020-08-12 01:15 2.86 1310 3390 (2013) 278 (1954) 709 316 351 370 408 502 607 767 1390 2560
2020-08-12 00:15 2.82 1300 3390 (2013) 278 (1954) 709 316 351 370 408 502 607 767 1390 2560
2020-08-11 23:15 2.76 1280 3290 (2013) 278 (1954) 699 320 354 380 388 490 643 749 1420 2420
2020-08-11 22:15 2.75 1280 3290 (2013) 278 (1954) 699 320 354 380 388 490 643 749 1420 2420
2020-08-11 21:15 2.76 1280 3290 (2013) 278 (1954) 699 320 354 380 388 490 643 749 1420 2420
2020-08-11 20:15 2.77 1280 3290 (2013) 278 (1954) 699 320 354 380 388 490 643 749 1420 2420
2020-08-11 19:15 2.79 1290 3290 (2013) 278 (1954) 699 320 354 380 388 490 643 749 1420 2420
2020-08-11 18:15 2.83 1300 3290 (2013) 278 (1954) 699 320 354 380 388 490 643 749 1420 2420
2020-08-11 17:15 2.86 1310 3290 (2013) 278 (1954) 699 320 354 380 388 490 643 749 1420 2420
2020-08-11 16:15 2.91 1330 3290 (2013) 278 (1954) 699 320 354 380 388 490 643 749 1420 2420
2020-08-11 15:15 2.96 1350 3290 (2013) 278 (1954) 699 320 354 380 388 490 643 749 1420 2420
2020-08-11 14:15 3.03 1370 3290 (2013) 278 (1954) 699 320 354 380 388 490 643 749 1420 2420
2020-08-11 13:15 3.10 1400 3290 (2013) 278 (1954) 699 320 354 380 388 490 643 749 1420 2420
2020-08-11 12:15 3.16 1420 3290 (2013) 278 (1954) 699 320 354 380 388 490 643 749 1420 2420
2020-08-11 11:15 3.14 1410 3290 (2013) 278 (1954) 699 320 354 380 388 490 643 749 1420 2420
2020-08-11 10:15 3.18 1420 3290 (2013) 278 (1954) 699 320 354 380 388 490 643 749 1420 2420
2020-08-11 09:15 3.24 1450 3290 (2013) 278 (1954) 699 320 354 380 388 490 643 749 1420 2420
2020-08-11 08:15 3.30 1470 3290 (2013) 278 (1954) 699 320 354 380 388 490 643 749 1420 2420
2020-08-11 07:15 3.36 1490 3290 (2013) 278 (1954) 699 320 354 380 388 490 643 749 1420 2420
2020-08-11 06:15 3.40 1500 3290 (2013) 278 (1954) 699 320 354 380 388 490 643 749 1420 2420
2020-08-11 05:15 3.43 1510 3290 (2013) 278 (1954) 699 320 354 380 388 490 643 749 1420 2420
2020-08-11 04:15 3.48 1530 3290 (2013) 278 (1954) 699 320 354 380 388 490 643 749 1420 2420
2020-08-11 03:15 3.49 1530 3290 (2013) 278 (1954) 699 320 354 380 388 490 643 749 1420 2420
2020-08-11 02:15 3.51 1540 3290 (2013) 278 (1954) 699 320 354 380 388 490 643 749 1420 2420
2020-08-11 01:15 3.51 1540 3290 (2013) 278 (1954) 699 320 354 380 388 490 643 749 1420 2420
2020-08-11 00:15 3.52 1540 3290 (2013) 278 (1954) 699 320 354 380 388 490 643 749 1420 2420
2020-08-10 23:15 3.54 1550 3310 (1957) 278 (1954) 713 324 347 373 385 497 661 818 1580 2420
2020-08-10 22:15 3.53 1550 3310 (1957) 278 (1954) 713 324 347 373 385 497 661 818 1580 2420
2020-08-10 21:15 3.52 1540 3310 (1957) 278 (1954) 713 324 347 373 385 497 661 818 1580 2420
2020-08-10 20:15 3.53 1550 3310 (1957) 278 (1954) 713 324 347 373 385 497 661 818 1580 2420
2020-08-10 19:15 3.54 1550 3310 (1957) 278 (1954) 713 324 347 373 385 497 661 818 1580 2420
2020-08-10 18:15 3.53 1550 3310 (1957) 278 (1954) 713 324 347 373 385 497 661 818 1580 2420
2020-08-10 17:15 3.54 1550 3310 (1957) 278 (1954) 713 324 347 373 385 497 661 818 1580 2420
2020-08-10 16:15 3.54 1550 3310 (1957) 278 (1954) 713 324 347 373 385 497 661 818 1580 2420
2020-08-10 15:15 3.55 1550 3310 (1957) 278 (1954) 713 324 347 373 385 497 661 818 1580 2420
2020-08-10 14:15 3.55 1550 3310 (1957) 278 (1954) 713 324 347 373 385 497 661 818 1580 2420
2020-08-10 13:15 3.55 1560 3310 (1957) 278 (1954) 713 324 347 373 385 497 661 818 1580 2420
2020-08-10 12:15 3.55 1560 3310 (1957) 278 (1954) 713 324 347 373 385 497 661 818 1580 2420
2020-08-10 11:15 3.55 1560 3310 (1957) 278 (1954) 713 324 347 373 385 497 661 818 1580 2420
2020-08-10 10:15 3.57 1560 3310 (1957) 278 (1954) 713 324 347 373 385 497 661 818 1580 2420
2020-08-10 09:15 3.57 1560 3310 (1957) 278 (1954) 713 324 347 373 385 497 661 818 1580 2420
2020-08-10 08:15 3.57 1560 3310 (1957) 278 (1954) 713 324 347 373 385 497 661 818 1580 2420
2020-08-10 07:15 3.57 1560 3310 (1957) 278 (1954) 713 324 347 373 385 497 661 818 1580 2420
2020-08-10 06:15 3.58 1570 3310 (1957) 278 (1954) 713 324 347 373 385 497 661 818 1580 2420
2020-08-10 05:15 3.60 1580 3310 (1957) 278 (1954) 713 324 347 373 385 497 661 818 1580 2420
2020-08-10 04:15 3.60 1580 3310 (1957) 278 (1954) 713 324 347 373 385 497 661 818 1580 2420
2020-08-10 03:15 3.61 1580 3310 (1957) 278 (1954) 713 324 347 373 385 497 661 818 1580 2420
2020-08-10 02:15 3.60 1580 3310 (1957) 278 (1954) 713 324 347 373 385 497 661 818 1580 2420
2020-08-10 01:15 3.62 1580 3310 (1957) 278 (1954) 713 324 347 373 385 497 661 818 1580 2420
2020-08-10 00:15 3.63 1590 3310 (1957) 278 (1954) 713 324 347 373 385 497 661 818 1580 2420
2020-08-09 23:15 3.64 1590 3350 (1957) 281 (1954) 707 322 351 382 410 499 657 716 1610 2130
2020-08-09 22:15 3.65 1590 3350 (1957) 281 (1954) 707 322 351 382 410 499 657 716 1610 2130
2020-08-09 21:15 3.67 1600 3350 (1957) 281 (1954) 707 322 351 382 410 499 657 716 1610 2130
2020-08-09 20:15 3.67 1600 3350 (1957) 281 (1954) 707 322 351 382 410 499 657 716 1610 2130
2020-08-09 19:15 3.69 1610 3350 (1957) 281 (1954) 707 322 351 382 410 499 657 716 1610 2130
2020-08-09 18:15 3.71 1610 3350 (1957) 281 (1954) 707 322 351 382 410 499 657 716 1610 2130
2020-08-09 17:15 3.72 1620 3350 (1957) 281 (1954) 707 322 351 382 410 499 657 716 1610 2130
2020-08-09 16:15 3.75 1630 3350 (1957) 281 (1954) 707 322 351 382 410 499 657 716 1610 2130
2020-08-09 15:15 3.75 1630 3350 (1957) 281 (1954) 707 322 351 382 410 499 657 716 1610 2130
2020-08-09 14:15 3.77 1630 3350 (1957) 281 (1954) 707 322 351 382 410 499 657 716 1610 2130
2020-08-09 13:15 3.78 1640 3350 (1957) 281 (1954) 707 322 351 382 410 499 657 716 1610 2130
2020-08-09 12:15 3.77 1630 3350 (1957) 281 (1954) 707 322 351 382 410 499 657 716 1610 2130
2020-08-09 11:15 3.76 1630 3350 (1957) 281 (1954) 707 322 351 382 410 499 657 716 1610 2130
2020-08-09 10:15 3.78 1640 3350 (1957) 281 (1954) 707 322 351 382 410 499 657 716 1610 2130
2020-08-09 09:15 3.80 1650 3350 (1957) 281 (1954) 707 322 351 382 410 499 657 716 1610 2130
2020-08-09 08:15 3.82 1650 3350 (1957) 281 (1954) 707 322 351 382 410 499 657 716 1610 2130
2020-08-09 07:15 3.67 1600 3350 (1957) 281 (1954) 707 322 351 382 410 499 657 716 1610 2130
2020-08-09 06:15 3.63 1590 3350 (1957) 281 (1954) 707 322 351 382 410 499 657 716 1610 2130
2020-08-09 05:15 3.63 1590 3350 (1957) 281 (1954) 707 322 351 382 410 499 657 716 1610 2130
2020-08-09 04:15 3.63 1590 3350 (1957) 281 (1954) 707 322 351 382 410 499 657 716 1610 2130
2020-08-09 03:15 3.64 1590 3350 (1957) 281 (1954) 707 322 351 382 410 499 657 716 1610 2130
2020-08-09 02:15 3.64 1590 3350 (1957) 281 (1954) 707 322 351 382 410 499 657 716 1610 2130
2020-08-09 01:15 3.65 1590 3350 (1957) 281 (1954) 707 322 351 382 410 499 657 716 1610 2130
2020-08-09 00:15 3.65 1590 3350 (1957) 281 (1954) 707 322 351 382 410 499 657 716 1610 2130
2020-08-08 23:15 3.66 1600 3350 (1957) 289 (1954) 723 326 353 397 412 522 634 737 1620 2400
2020-08-08 22:15 3.67 1600 3350 (1957) 289 (1954) 723 326 353 397 412 522 634 737 1620 2400
2020-08-08 21:15 3.67 1600 3350 (1957) 289 (1954) 723 326 353 397 412 522 634 737 1620 2400
2020-08-08 20:15 3.69 1610 3350 (1957) 289 (1954) 723 326 353 397 412 522 634 737 1620 2400
2020-08-08 19:15 3.70 1610 3350 (1957) 289 (1954) 723 326 353 397 412 522 634 737 1620 2400
2020-08-08 18:15 3.72 1620 3350 (1957) 289 (1954) 723 326 353 397 412 522 634 737 1620 2400
2020-08-08 17:15 3.73 1620 3350 (1957) 289 (1954) 723 326 353 397 412 522 634 737 1620 2400
2020-08-08 16:15 3.74 1620 3350 (1957) 289 (1954) 723 326 353 397 412 522 634 737 1620 2400
2020-08-08 15:15 3.74 1620 3350 (1957) 289 (1954) 723 326 353 397 412 522 634 737 1620 2400
2020-08-08 14:15 3.77 1630 3350 (1957) 289 (1954) 723 326 353 397 412 522 634 737 1620 2400
2020-08-08 13:15 3.80 1650 3350 (1957) 289 (1954) 723 326 353 397 412 522 634 737 1620 2400
2020-08-08 12:15 3.81 1650 3350 (1957) 289 (1954) 723 326 353 397 412 522 634 737 1620 2400
2020-08-08 11:15 3.83 1660 3350 (1957) 289 (1954) 723 326 353 397 412 522 634 737 1620 2400
2020-08-08 10:15 3.87 1670 3350 (1957) 289 (1954) 723 326 353 397 412 522 634 737 1620 2400
2020-08-08 09:15 3.88 1670 3350 (1957) 289 (1954) 723 326 353 397 412 522 634 737 1620 2400
2020-08-08 08:15 3.91 1680 3350 (1957) 289 (1954) 723 326 353 397 412 522 634 737 1620 2400
2020-08-08 07:15 3.95 1700 3350 (1957) 289 (1954) 723 326 353 397 412 522 634 737 1620 2400
2020-08-08 06:15 3.95 1700 3350 (1957) 289 (1954) 723 326 353 397 412 522 634 737 1620 2400
2020-08-08 05:15 3.97 1700 3350 (1957) 289 (1954) 723 326 353 397 412 522 634 737 1620 2400
2020-08-08 04:15 3.99 1710 3350 (1957) 289 (1954) 723 326 353 397 412 522 634 737 1620 2400
2020-08-08 03:15 4.00 1710 3350 (1957) 289 (1954) 723 326 353 397 412 522 634 737 1620 2400
2020-08-08 02:15 4.02 1720 3350 (1957) 289 (1954) 723 326 353 397 412 522 634 737 1620 2400
2020-08-08 01:15 4.01 1720 3350 (1957) 289 (1954) 723 326 353 397 412 522 634 737 1620 2400
2020-08-08 00:15 4.01 1720 3350 (1957) 289 (1954) 723 326 353 397 412 522 634 737 1620 2400
2020-08-07 23:15 4.02 1720 3270 (1957) 289 (1954) 714 326 360 390 410 515 662 778 1620 2050
2020-08-07 22:15 4.02 1720 3270 (1957) 289 (1954) 714 326 360 390 410 515 662 778 1620 2050
2020-08-07 21:15 4.01 1720 3270 (1957) 289 (1954) 714 326 360 390 410 515 662 778 1620 2050
2020-08-07 20:15 4.00 1710 3270 (1957) 289 (1954) 714 326 360 390 410 515 662 778 1620 2050
2020-08-07 19:15 4.00 1710 3270 (1957) 289 (1954) 714 326 360 390 410 515 662 778 1620 2050
2020-08-07 18:15 4.00 1710 3270 (1957) 289 (1954) 714 326 360 390 410 515 662 778 1620 2050
2020-08-07 17:15 4.00 1710 3270 (1957) 289 (1954) 714 326 360 390 410 515 662 778 1620 2050
2020-08-07 16:15 4.00 1710 3270 (1957) 289 (1954) 714 326 360 390 410 515 662 778 1620 2050
2020-08-07 15:15 3.98 1710 3270 (1957) 289 (1954) 714 326 360 390 410 515 662 778 1620 2050
2020-08-07 14:15 4.00 1710 3270 (1957) 289 (1954) 714 326 360 390 410 515 662 778 1620 2050
2020-08-07 13:15 3.98 1710 3270 (1957) 289 (1954) 714 326 360 390 410 515 662 778 1620 2050
2020-08-07 12:15 3.97 1700 3270 (1957) 289 (1954) 714 326 360 390 410 515 662 778 1620 2050
2020-08-07 11:15 3.96 1700 3270 (1957) 289 (1954) 714 326 360 390 410 515 662 778 1620 2050
2020-08-07 10:15 3.95 1700 3270 (1957) 289 (1954) 714 326 360 390 410 515 662 778 1620 2050
2020-08-07 09:15 3.93 1690 3270 (1957) 289 (1954) 714 326 360 390 410 515 662 778 1620 2050
2020-08-07 08:15 3.95 1700 3270 (1957) 289 (1954) 714 326 360 390 410 515 662 778 1620 2050
2020-08-07 07:15 3.92 1690 3270 (1957) 289 (1954) 714 326 360 390 410 515 662 778 1620 2050
2020-08-07 06:15 3.92 1690 3270 (1957) 289 (1954) 714 326 360 390 410 515 662 778 1620 2050
2020-08-07 05:15 3.90 1680 3270 (1957) 289 (1954) 714 326 360 390 410 515 662 778 1620 2050
2020-08-07 04:15 3.89 1680 3270 (1957) 289 (1954) 714 326 360 390 410 515 662 778 1620 2050
2020-08-07 03:15 3.87 1670 3270 (1957) 289 (1954) 714 326 360 390 410 515 662 778 1620 2050
2020-08-07 02:15 3.85 1660 3270 (1957) 289 (1954) 714 326 360 390 410 515 662 778 1620 2050
2020-08-07 01:15 3.85 1660 3270 (1957) 289 (1954) 714 326 360 390 410 515 662 778 1620 2050
2020-08-07 00:15 3.80 1650 3270 (1957) 289 (1954) 714 326 360 390 410 515 662 778 1620 2050
2020-08-06 23:15 3.79 1640 3270 (1957) 273 (1954) 711 326 358 398 413 547 704 776 1380 1960
2020-08-06 22:15 3.77 1630 3270 (1957) 273 (1954) 711 326 358 398 413 547 704 776 1380 1960
2020-08-06 21:15 3.73 1620 3270 (1957) 273 (1954) 711 326 358 398 413 547 704 776 1380 1960
2020-08-06 20:15 3.69 1610 3270 (1957) 273 (1954) 711 326 358 398 413 547 704 776 1380 1960
2020-08-06 19:15 3.67 1600 3270 (1957) 273 (1954) 711 326 358 398 413 547 704 776 1380 1960
2020-08-06 18:15 3.64 1590 3270 (1957) 273 (1954) 711 326 358 398 413 547 704 776 1380 1960
2020-08-06 17:15 3.60 1580 3270 (1957) 273 (1954) 711 326 358 398 413 547 704 776 1380 1960
2020-08-06 16:15 3.55 1560 3270 (1957) 273 (1954) 711 326 358 398 413 547 704 776 1380 1960
2020-08-06 15:15 3.52 1550 3270 (1957) 273 (1954) 711 326 358 398 413 547 704 776 1380 1960
2020-08-06 14:15 3.50 1540 3270 (1957) 273 (1954) 711 326 358 398 413 547 704 776 1380 1960
2020-08-06 13:15 3.47 1530 3270 (1957) 273 (1954) 711 326 358 398 413 547 704 776 1380 1960
2020-08-06 12:15 3.45 1520 3270 (1957) 273 (1954) 711 326 358 398 413 547 704 776 1380 1960
2020-08-06 11:15 3.43 1520 3270 (1957) 273 (1954) 711 326 358 398 413 547 704 776 1380 1960
2020-08-06 10:15 3.41 1510 3270 (1957) 273 (1954) 711 326 358 398 413 547 704 776 1380 1960
2020-08-06 09:15 3.41 1510 3270 (1957) 273 (1954) 711 326 358 398 413 547 704 776 1380 1960
2020-08-06 08:15 3.40 1510 3270 (1957) 273 (1954) 711 326 358 398 413 547 704 776 1380 1960
2020-08-06 07:15 3.39 1500 3270 (1957) 273 (1954) 711 326 358 398 413 547 704 776 1380 1960
2020-08-06 06:15 3.39 1500 3270 (1957) 273 (1954) 711 326 358 398 413 547 704 776 1380 1960
2020-08-06 05:15 3.38 1500 3270 (1957) 273 (1954) 711 326 358 398 413 547 704 776 1380 1960
2020-08-06 04:15 3.37 1500 3270 (1957) 273 (1954) 711 326 358 398 413 547 704 776 1380 1960
2020-08-06 03:15 3.36 1490 3270 (1957) 273 (1954) 711 326 358 398 413 547 704 776 1380 1960
2020-08-06 02:15 3.35 1490 3270 (1957) 273 (1954) 711 326 358 398 413 547 704 776 1380 1960
2020-08-06 01:15 3.34 1490 3270 (1957) 273 (1954) 711 326 358 398 413 547 704 776 1380 1960
2020-08-06 00:15 3.33 1480 3270 (1957) 273 (1954) 711 326 358 398 413 547 704 776 1380 1960
2020-08-05 23:15 3.33 1480 3380 (1957) 263 (1954) 704 330 361 391 415 558 735 767 1370 1800
2020-08-05 22:15 3.31 1470 3380 (1957) 263 (1954) 704 330 361 391 415 558 735 767 1370 1800
2020-08-05 21:15 3.31 1470 3380 (1957) 263 (1954) 704 330 361 391 415 558 735 767 1370 1800
2020-08-05 20:15 3.28 1460 3380 (1957) 263 (1954) 704 330 361 391 415 558 735 767 1370 1800
2020-08-05 19:15 3.27 1460 3380 (1957) 263 (1954) 704 330 361 391 415 558 735 767 1370 1800
2020-08-05 18:15 3.25 1450 3380 (1957) 263 (1954) 704 330 361 391 415 558 735 767 1370 1800
2020-08-05 17:15 3.23 1450 3380 (1957) 263 (1954) 704 330 361 391 415 558 735 767 1370 1800
2020-08-05 16:15 3.23 1450 3380 (1957) 263 (1954) 704 330 361 391 415 558 735 767 1370 1800
2020-08-05 15:15 3.19 1430 3380 (1957) 263 (1954) 704 330 361 391 415 558 735 767 1370 1800
2020-08-05 14:15 3.16 1420 3380 (1957) 263 (1954) 704 330 361 391 415 558 735 767 1370 1800
2020-08-05 13:15 3.13 1410 3380 (1957) 263 (1954) 704 330 361 391 415 558 735 767 1370 1800
2020-08-05 12:15 3.11 1410 3380 (1957) 263 (1954) 704 330 361 391 415 558 735 767 1370 1800
2020-08-05 11:15 3.07 1390 3380 (1957) 263 (1954) 704 330 361 391 415 558 735 767 1370 1800
2020-08-05 10:15 3.04 1380 3380 (1957) 263 (1954) 704 330 361 391 415 558 735 767 1370 1800
2020-08-05 09:15 3.01 1370 3380 (1957) 263 (1954) 704 330 361 391 415 558 735 767 1370 1800
2020-08-05 08:15 2.97 1360 3380 (1957) 263 (1954) 704 330 361 391 415 558 735 767 1370 1800
2020-08-05 07:15 2.93 1340 3380 (1957) 263 (1954) 704 330 361 391 415 558 735 767 1370 1800
2020-08-05 06:15 2.91 1340 3380 (1957) 263 (1954) 704 330 361 391 415 558 735 767 1370 1800
2020-08-05 05:15 2.89 1330 3380 (1957) 263 (1954) 704 330 361 391 415 558 735 767 1370 1800
2020-08-05 04:15 2.86 1320 3380 (1957) 263 (1954) 704 330 361 391 415 558 735 767 1370 1800
2020-08-05 03:15 2.84 1310 3380 (1957) 263 (1954) 704 330 361 391 415 558 735 767 1370 1800
2020-08-05 02:15 2.81 1300 3380 (1957) 263 (1954) 704 330 361 391 415 558 735 767 1370 1800
2020-08-05 01:15 2.79 1300 3380 (1957) 263 (1954) 704 330 361 391 415 558 735 767 1370 1800
2020-08-05 00:15 2.77 1290 3380 (1957) 263 (1954) 704 330 361 391 415 558 735 767 1370 1800
2020-08-04 23:15 2.76 1290 3310 (1957) 270 (1954) 712 326 353 391 402 558 720 833 1360 1820
2020-08-04 22:15 2.75 1280 3310 (1957) 270 (1954) 712 326 353 391 402 558 720 833 1360 1820
2020-08-04 21:15 2.72 1270 3310 (1957) 270 (1954) 712 326 353 391 402 558 720 833 1360 1820
2020-08-04 20:15 2.69 1260 3310 (1957) 270 (1954) 712 326 353 391 402 558 720 833 1360 1820
2020-08-04 19:15 2.65 1250 3310 (1957) 270 (1954) 712 326 353 391 402 558 720 833 1360 1820
2020-08-04 18:15 2.61 1230 3310 (1957) 270 (1954) 712 326 353 391 402 558 720 833 1360 1820
2020-08-04 17:15 2.58 1220 3310 (1957) 270 (1954) 712 326 353 391 402 558 720 833 1360 1820
2020-08-04 16:15 2.53 1210 3310 (1957) 270 (1954) 712 326 353 391 402 558 720 833 1360 1820
2020-08-04 15:15 2.48 1190 3310 (1957) 270 (1954) 712 326 353 391 402 558 720 833 1360 1820
2020-08-04 14:15 2.42 1170 3310 (1957) 270 (1954) 712 326 353 391 402 558 720 833 1360 1820
2020-08-04 13:15 2.36 1150 3310 (1957) 270 (1954) 712 326 353 391 402 558 720 833 1360 1820
2020-08-04 12:15 2.29 1120 3310 (1957) 270 (1954) 712 326 353 391 402 558 720 833 1360 1820
2020-08-04 11:15 2.22 1100 3310 (1957) 270 (1954) 712 326 353 391 402 558 720 833 1360 1820
2020-08-04 10:15 2.14 1070 3310 (1957) 270 (1954) 712 326 353 391 402 558 720 833 1360 1820
2020-08-04 09:15 2.08 1050 3310 (1957) 270 (1954) 712 326 353 391 402 558 720 833 1360 1820
2020-08-04 08:15 1.99 1020 3310 (1957) 270 (1954) 712 326 353 391 402 558 720 833 1360 1820
2020-08-04 07:15 1.91 996 3310 (1957) 270 (1954) 712 326 353 391 402 558 720 833 1360 1820
2020-08-04 06:15 1.86 978 3310 (1957) 270 (1954) 712 326 353 391 402 558 720 833 1360 1820
2020-08-04 05:15 1.82 964 3310 (1957) 270 (1954) 712 326 353 391 402 558 720 833 1360 1820
2020-08-04 04:15 1.77 947 3310 (1957) 270 (1954) 712 326 353 391 402 558 720 833 1360 1820
2020-08-04 03:15 1.76 944 3310 (1957) 270 (1954) 712 326 353 391 402 558 720 833 1360 1820
2020-08-04 02:15 1.74 937 3310 (1957) 270 (1954) 712 326 353 391 402 558 720 833 1360 1820
2020-08-04 01:15 1.74 937 3310 (1957) 270 (1954) 712 326 353 391 402 558 720 833 1360 1820
2020-08-04 00:15 1.74 937 3310 (1957) 270 (1954) 712 326 353 391 402 558 720 833 1360 1820
2020-08-03 23:15 1.75 940 3170 (1951) 276 (1954) 730 329 366 389 417 580 734 889 1540 1990
2020-08-03 22:15 1.75 940 3170 (1951) 276 (1954) 730 329 366 389 417 580 734 889 1540 1990
2020-08-03 21:15 1.76 944 3170 (1951) 276 (1954) 730 329 366 389 417 580 734 889 1540 1990
2020-08-03 20:15 1.76 944 3170 (1951) 276 (1954) 730 329 366 389 417 580 734 889 1540 1990
2020-08-03 19:15 1.75 940 3170 (1951) 276 (1954) 730 329 366 389 417 580 734 889 1540 1990
2020-08-03 18:15 1.75 940 3170 (1951) 276 (1954) 730 329 366 389 417 580 734 889 1540 1990
2020-08-03 17:15 1.77 947 3170 (1951) 276 (1954) 730 329 366 389 417 580 734 889 1540 1990
2020-08-03 16:15 1.78 951 3170 (1951) 276 (1954) 730 329 366 389 417 580 734 889 1540 1990
2020-08-03 15:15 1.77 947 3170 (1951) 276 (1954) 730 329 366 389 417 580 734 889 1540 1990
2020-08-03 14:15 1.77 947 3170 (1951) 276 (1954) 730 329 366 389 417 580 734 889 1540 1990
2020-08-03 13:15 1.79 954 3170 (1951) 276 (1954) 730 329 366 389 417 580 734 889 1540 1990
2020-08-03 12:15 1.79 954 3170 (1951) 276 (1954) 730 329 366 389 417 580 734 889 1540 1990
2020-08-03 11:15 1.79 954 3170 (1951) 276 (1954) 730 329 366 389 417 580 734 889 1540 1990
2020-08-03 10:15 1.80 958 3170 (1951) 276 (1954) 730 329 366 389 417 580 734 889 1540 1990
2020-08-03 09:15 1.80 958 3170 (1951) 276 (1954) 730 329 366 389 417 580 734 889 1540 1990
2020-08-03 08:15 1.80 958 3170 (1951) 276 (1954) 730 329 366 389 417 580 734 889 1540 1990
2020-08-03 07:15 1.81 961 3170 (1951) 276 (1954) 730 329 366 389 417 580 734 889 1540 1990
2020-08-03 06:15 1.81 961 3170 (1951) 276 (1954) 730 329 366 389 417 580 734 889 1540 1990
2020-08-03 05:15 1.82 964 3170 (1951) 276 (1954) 730 329 366 389 417 580 734 889 1540 1990
2020-08-03 04:15 1.81 961 3170 (1951) 276 (1954) 730 329 366 389 417 580 734 889 1540 1990
2020-08-03 03:15 1.83 968 3170 (1951) 276 (1954) 730 329 366 389 417 580 734 889 1540 1990
2020-08-03 02:15 1.84 971 3170 (1951) 276 (1954) 730 329 366 389 417 580 734 889 1540 1990
2020-08-03 01:15 1.84 971 3170 (1951) 276 (1954) 730 329 366 389 417 580 734 889 1540 1990
2020-08-03 00:15 1.85 975 3170 (1951) 276 (1954) 730 329 366 389 417 580 734 889 1540 1990
2020-08-02 23:15 1.86 978 3170 (1951) 292 (1954) 754 333 365 404 419 556 773 994 1580 1970
2020-08-02 22:15 1.87 982 3170 (1951) 292 (1954) 754 333 365 404 419 556 773 994 1580 1970
2020-08-02 21:15 1.88 985 3170 (1951) 292 (1954) 754 333 365 404 419 556 773 994 1580 1970
2020-08-02 20:15 1.89 989 3170 (1951) 292 (1954) 754 333 365 404 419 556 773 994 1580 1970
2020-08-02 19:15 1.89 989 3170 (1951) 292 (1954) 754 333 365 404 419 556 773 994 1580 1970
2020-08-02 18:15 1.91 996 3170 (1951) 292 (1954) 754 333 365 404 419 556 773 994 1580 1970
2020-08-02 17:15 1.89 989 3170 (1951) 292 (1954) 754 333 365 404 419 556 773 994 1580 1970
2020-08-02 16:15 1.90 992 3170 (1951) 292 (1954) 754 333 365 404 419 556 773 994 1580 1970
2020-08-02 15:15 1.92 999 3170 (1951) 292 (1954) 754 333 365 404 419 556 773 994 1580 1970
2020-08-02 14:15 1.93 1000 3170 (1951) 292 (1954) 754 333 365 404 419 556 773 994 1580 1970
2020-08-02 13:15 1.94 1010 3170 (1951) 292 (1954) 754 333 365 404 419 556 773 994 1580 1970
2020-08-02 12:15 1.96 1010 3170 (1951) 292 (1954) 754 333 365 404 419 556 773 994 1580 1970
2020-08-02 11:15 1.97 1020 3170 (1951) 292 (1954) 754 333 365 404 419 556 773 994 1580 1970
2020-08-02 10:15 1.99 1020 3170 (1951) 292 (1954) 754 333 365 404 419 556 773 994 1580 1970
2020-08-02 09:15 2.02 1030 3170 (1951) 292 (1954) 754 333 365 404 419 556 773 994 1580 1970
2020-08-02 08:15 2.04 1040 3170 (1951) 292 (1954) 754 333 365 404 419 556 773 994 1580 1970
2020-08-02 07:15 2.06 1050 3170 (1951) 292 (1954) 754 333 365 404 419 556 773 994 1580 1970
2020-08-02 06:15 2.08 1050 3170 (1951) 292 (1954) 754 333 365 404 419 556 773 994 1580 1970
2020-08-02 05:15 2.12 1070 3170 (1951) 292 (1954) 754 333 365 404 419 556 773 994 1580 1970
2020-08-02 04:15 2.14 1070 3170 (1951) 292 (1954) 754 333 365 404 419 556 773 994 1580 1970
2020-08-02 03:15 2.17 1080 3170 (1951) 292 (1954) 754 333 365 404 419 556 773 994 1580 1970
2020-08-02 02:15 2.20 1090 3170 (1951) 292 (1954) 754 333 365 404 419 556 773 994 1580 1970
2020-08-02 01:15 2.24 1110 3170 (1951) 292 (1954) 754 333 365 404 419 556 773 994 1580 1970
2020-08-02 00:15 2.25 1110 3170 (1951) 292 (1954) 754 333 365 404 419 556 773 994 1580 1970
2020-08-01 23:15 2.28 1120 3040 (1951) 297 (1954) 769 329 373 410 423 570 810 917 1640 2230
2020-08-01 22:15 2.30 1130 3040 (1951) 297 (1954) 769 329 373 410 423 570 810 917 1640 2230
2020-08-01 21:15 2.33 1140 3040 (1951) 297 (1954) 769 329 373 410 423 570 810 917 1640 2230
2020-08-01 20:15 2.32 1130 3040 (1951) 297 (1954) 769 329 373 410 423 570 810 917 1640 2230
2020-08-01 19:15 2.34 1140 3040 (1951) 297 (1954) 769 329 373 410 423 570 810 917 1640 2230
2020-08-01 18:15 2.32 1130 3040 (1951) 297 (1954) 769 329 373 410 423 570 810 917 1640 2230
2020-08-01 17:15 2.32 1130 3040 (1951) 297 (1954) 769 329 373 410 423 570 810 917 1640 2230
2020-08-01 16:15 2.30 1130 3040 (1951) 297 (1954) 769 329 373 410 423 570 810 917 1640 2230
2020-08-01 15:15 2.28 1120 3040 (1951) 297 (1954) 769 329 373 410 423 570 810 917 1640 2230
2020-08-01 14:15 2.26 1110 3040 (1951) 297 (1954) 769 329 373 410 423 570 810 917 1640 2230
2020-08-01 13:15 2.22 1100 3040 (1951) 297 (1954) 769 329 373 410 423 570 810 917 1640 2230
2020-08-01 12:15 2.19 1090 3040 (1951) 297 (1954) 769 329 373 410 423 570 810 917 1640 2230
2020-08-01 11:15 2.13 1070 3040 (1951) 297 (1954) 769 329 373 410 423 570 810 917 1640 2230
2020-08-01 10:15 2.10 1060 3040 (1951) 297 (1954) 769 329 373 410 423 570 810 917 1640 2230
2020-08-01 09:15 2.06 1050 3040 (1951) 297 (1954) 769 329 373 410 423 570 810 917 1640 2230
2020-08-01 08:15 2.00 1030 3040 (1951) 297 (1954) 769 329 373 410 423 570 810 917 1640 2230
2020-08-01 07:15 1.97 1020 3040 (1951) 297 (1954) 769 329 373 410 423 570 810 917 1640 2230
2020-08-01 06:15 1.93 1000 3040 (1951) 297 (1954) 769 329 373 410 423 570 810 917 1640 2230
2020-08-01 05:15 1.93 1000 3040 (1951) 297 (1954) 769 329 373 410 423 570 810 917 1640 2230
2020-08-01 04:15 1.90 992 3040 (1951) 297 (1954) 769 329 373 410 423 570 810 917 1640 2230
2020-08-01 03:15 1.90 992 3040 (1951) 297 (1954) 769 329 373 410 423 570 810 917 1640 2230
2020-08-01 02:15 1.90 992 3040 (1951) 297 (1954) 769 329 373 410 423 570 810 917 1640 2230
2020-08-01 01:15 1.87 982 3040 (1951) 297 (1954) 769 329 373 410 423 570 810 917 1640 2230
2020-08-01 00:15 1.84 971 3040 (1951) 297 (1954) 769 329 373 410 423 570 810 917 1640 2230
2020-07-31 23:15 1.81 961 4380 (1998) 308 (1954) 772 329 344 403 419 553 744 815 1790 2220
2020-07-31 22:15 1.76 944 4380 (1998) 308 (1954) 772 329 344 403 419 553 744 815 1790 2220
2020-07-31 21:15 1.70 923 4380 (1998) 308 (1954) 772 329 344 403 419 553 744 815 1790 2220
2020-07-31 20:15 1.65 906 4380 (1998) 308 (1954) 772 329 344 403 419 553 744 815 1790 2220
2020-07-31 19:15 1.61 892 4380 (1998) 308 (1954) 772 329 344 403 419 553 744 815 1790 2220
2020-07-31 18:15 1.59 886 4380 (1998) 308 (1954) 772 329 344 403 419 553 744 815 1790 2220
2020-07-31 17:15 1.58 882 4380 (1998) 308 (1954) 772 329 344 403 419 553 744 815 1790 2220
2020-07-31 16:15 1.58 882 4380 (1998) 308 (1954) 772 329 344 403 419 553 744 815 1790 2220
2020-07-31 15:15 1.58 882 4380 (1998) 308 (1954) 772 329 344 403 419 553 744 815 1790 2220
2020-07-31 14:15 1.58 882 4380 (1998) 308 (1954) 772 329 344 403 419 553 744 815 1790 2220
2020-07-31 13:15 1.59 886 4380 (1998) 308 (1954) 772 329 344 403 419 553 744 815 1790 2220
2020-07-31 12:15 1.58 882 4380 (1998) 308 (1954) 772 329 344 403 419 553 744 815 1790 2220
2020-07-31 11:15 1.59 886 4380 (1998) 308 (1954) 772 329 344 403 419 553 744 815 1790 2220
2020-07-31 10:15 1.60 889 4380 (1998) 308 (1954) 772 329 344 403 419 553 744 815 1790 2220
2020-07-31 09:15 1.61 892 4380 (1998) 308 (1954) 772 329 344 403 419 553 744 815 1790 2220
2020-07-31 08:15 1.61 892 4380 (1998) 308 (1954) 772 329 344 403 419 553 744 815 1790 2220
2020-07-31 07:15 1.62 896 4380 (1998) 308 (1954) 772 329 344 403 419 553 744 815 1790 2220
2020-07-31 06:15 1.64 903 4380 (1998) 308 (1954) 772 329 344 403 419 553 744 815 1790 2220
2020-07-31 05:15 1.66 910 4380 (1998) 308 (1954) 772 329 344 403 419 553 744 815 1790 2220
2020-07-31 04:15 1.70 923 4380 (1998) 308 (1954) 772 329 344 403 419 553 744 815 1790 2220
2020-07-31 03:15 1.73 934 4380 (1998) 308 (1954) 772 329 344 403 419 553 744 815 1790 2220
2020-07-31 02:15 1.77 947 4380 (1998) 308 (1954) 772 329 344 403 419 553 744 815 1790 2220
2020-07-31 01:15 1.81 961 4380 (1998) 308 (1954) 772 329 344 403 419 553 744 815 1790 2220
2020-07-31 00:15 1.85 975 4380 (1998) 308 (1954) 772 329 344 403 419 553 744 815 1790 2220
2020-07-30 23:15 1.90 992 3870 (1957) 311 (1954) 789 327 364 410 420 572 732 960 1750 2360
2020-07-30 22:15 1.97 1020 3870 (1957) 311 (1954) 789 327 364 410 420 572 732 960 1750 2360
2020-07-30 21:15 2.01 1030 3870 (1957) 311 (1954) 789 327 364 410 420 572 732 960 1750 2360
2020-07-30 20:15 2.07 1050 3870 (1957) 311 (1954) 789 327 364 410 420 572 732 960 1750 2360
2020-07-30 19:15 2.14 1070 3870 (1957) 311 (1954) 789 327 364 410 420 572 732 960 1750 2360
2020-07-30 18:15 2.19 1090 3870 (1957) 311 (1954) 789 327 364 410 420 572 732 960 1750 2360
2020-07-30 17:15 2.26 1110 3870 (1957) 311 (1954) 789 327 364 410 420 572 732 960 1750 2360
2020-07-30 16:15 2.32 1130 3870 (1957) 311 (1954) 789 327 364 410 420 572 732 960 1750 2360
2020-07-30 15:15 2.33 1140 3870 (1957) 311 (1954) 789 327 364 410 420 572 732 960 1750 2360
2020-07-30 14:15 2.32 1130 3870 (1957) 311 (1954) 789 327 364 410 420 572 732 960 1750 2360
2020-07-30 13:15 2.29 1120 3870 (1957) 311 (1954) 789 327 364 410 420 572 732 960 1750 2360
2020-07-30 12:15 2.21 1100 3870 (1957) 311 (1954) 789 327 364 410 420 572 732 960 1750 2360
2020-07-30 11:15 2.08 1050 3870 (1957) 311 (1954) 789 327 364 410 420 572 732 960 1750 2360
2020-07-30 10:15 1.96 1010 3870 (1957) 311 (1954) 789 327 364 410 420 572 732 960 1750 2360
2020-07-30 09:15 1.85 975 3870 (1957) 311 (1954) 789 327 364 410 420 572 732 960 1750 2360
2020-07-30 08:15 1.75 940 3870 (1957) 311 (1954) 789 327 364 410 420 572 732 960 1750 2360
2020-07-30 07:15 1.69 920 3870 (1957) 311 (1954) 789 327 364 410 420 572 732 960 1750 2360
2020-07-30 06:15 1.66 910 3870 (1957) 311 (1954) 789 327 364 410 420 572 732 960 1750 2360
2020-07-30 05:15 1.66 910 3870 (1957) 311 (1954) 789 327 364 410 420 572 732 960 1750 2360
2020-07-30 04:15 1.70 923 3870 (1957) 311 (1954) 789 327 364 410 420 572 732 960 1750 2360
2020-07-30 03:15 1.57 879 3870 (1957) 311 (1954) 789 327 364 410 420 572 732 960 1750 2360
2020-07-30 02:15 1.46 841 3870 (1957) 311 (1954) 789 327 364 410 420 572 732 960 1750 2360
2020-07-30 01:15 1.45 838 3870 (1957) 311 (1954) 789 327 364 410 420 572 732 960 1750 2360
2020-07-30 00:15 1.45 838 3870 (1957) 311 (1954) 789 327 364 410 420 572 732 960 1750 2360
2020-07-29 23:15 1.45 838 4370 (1957) 314 (1954) 808 330 368 410 426 579 764 1070 1550 2650
2020-07-29 22:15 1.44 834 4370 (1957) 314 (1954) 808 330 368 410 426 579 764 1070 1550 2650
2020-07-29 21:15 1.43 831 4370 (1957) 314 (1954) 808 330 368 410 426 579 764 1070 1550 2650
2020-07-29 20:15 1.43 831 4370 (1957) 314 (1954) 808 330 368 410 426 579 764 1070 1550 2650
2020-07-29 19:15 1.42 827 4370 (1957) 314 (1954) 808 330 368 410 426 579 764 1070 1550 2650
2020-07-29 18:15 1.40 821 4370 (1957) 314 (1954) 808 330 368 410 426 579 764 1070 1550 2650
2020-07-29 17:15 1.39 817 4370 (1957) 314 (1954) 808 330 368 410 426 579 764 1070 1550 2650
2020-07-29 16:15 1.39 817 4370 (1957) 314 (1954) 808 330 368 410 426 579 764 1070 1550 2650
2020-07-29 15:15 1.37 810 4370 (1957) 314 (1954) 808 330 368 410 426 579 764 1070 1550 2650
2020-07-29 14:15 1.35 804 4370 (1957) 314 (1954) 808 330 368 410 426 579 764 1070 1550 2650
2020-07-29 13:15 1.34 800 4370 (1957) 314 (1954) 808 330 368 410 426 579 764 1070 1550 2650
2020-07-29 12:15 1.33 797 4370 (1957) 314 (1954) 808 330 368 410 426 579 764 1070 1550 2650
2020-07-29 11:15 1.31 790 4370 (1957) 314 (1954) 808 330 368 410 426 579 764 1070 1550 2650
2020-07-29 10:15 1.30 787 4370 (1957) 314 (1954) 808 330 368 410 426 579 764 1070 1550 2650
2020-07-29 09:15 1.29 783 4370 (1957) 314 (1954) 808 330 368 410 426 579 764 1070 1550 2650
2020-07-29 08:15 1.27 777 4370 (1957) 314 (1954) 808 330 368 410 426 579 764 1070 1550 2650
2020-07-29 07:15 1.26 773 4370 (1957) 314 (1954) 808 330 368 410 426 579 764 1070 1550 2650
2020-07-29 06:15 1.26 773 4370 (1957) 314 (1954) 808 330 368 410 426 579 764 1070 1550 2650
2020-07-29 05:15 1.27 777 4370 (1957) 314 (1954) 808 330 368 410 426 579 764 1070 1550 2650
2020-07-29 04:15 1.26 773 4370 (1957) 314 (1954) 808 330 368 410 426 579 764 1070 1550 2650
2020-07-29 03:15 1.26 773 4370 (1957) 314 (1954) 808 330 368 410 426 579 764 1070 1550 2650
2020-07-29 02:15 1.28 780 4370 (1957) 314 (1954) 808 330 368 410 426 579 764 1070 1550 2650
2020-07-29 01:15 1.29 783 4370 (1957) 314 (1954) 808 330 368 410 426 579 764 1070 1550 2650
2020-07-29 00:15 1.29 783 4370 (1957) 314 (1954) 808 330 368 410 426 579 764 1070 1550 2650
2020-07-28 23:15 1.30 787 3540 (1957) 312 (1962) 825 331 360 409 433 586 815 1040 1670 3000
2020-07-28 22:15 1.32 793 3540 (1957) 312 (1962) 825 331 360 409 433 586 815 1040 1670 3000
2020-07-28 21:15 1.31 790 3540 (1957) 312 (1962) 825 331 360 409 433 586 815 1040 1670 3000
2020-07-28 20:15 1.31 790 3540 (1957) 312 (1962) 825 331 360 409 433 586 815 1040 1670 3000
2020-07-28 19:15 1.32 793 3540 (1957) 312 (1962) 825 331 360 409 433 586 815 1040 1670 3000
2020-07-28 18:15 1.31 790 3540 (1957) 312 (1962) 825 331 360 409 433 586 815 1040 1670 3000
2020-07-28 17:15 1.32 793 3540 (1957) 312 (1962) 825 331 360 409 433 586 815 1040 1670 3000
2020-07-28 16:15 1.31 790 3540 (1957) 312 (1962) 825 331 360 409 433 586 815 1040 1670 3000
2020-07-28 15:15 1.30 787 3540 (1957) 312 (1962) 825 331 360 409 433 586 815 1040 1670 3000
2020-07-28 14:15 1.29 783 3540 (1957) 312 (1962) 825 331 360 409 433 586 815 1040 1670 3000
2020-07-28 13:15 1.27 777 3540 (1957) 312 (1962) 825 331 360 409 433 586 815 1040 1670 3000
2020-07-28 12:15 1.25 770 3540 (1957) 312 (1962) 825 331 360 409 433 586 815 1040 1670 3000
2020-07-28 11:15 1.22 760 3540 (1957) 312 (1962) 825 331 360 409 433 586 815 1040 1670 3000
2020-07-28 10:15 1.21 756 3540 (1957) 312 (1962) 825 331 360 409 433 586 815 1040 1670 3000
2020-07-28 09:15 1.17 743 3540 (1957) 312 (1962) 825 331 360 409 433 586 815 1040 1670 3000
2020-07-28 08:15 1.15 736 3540 (1957) 312 (1962) 825 331 360 409 433 586 815 1040 1670 3000
2020-07-28 07:15 1.11 722 3540 (1957) 312 (1962) 825 331 360 409 433 586 815 1040 1670 3000
2020-07-28 06:15 1.10 719 3540 (1957) 312 (1962) 825 331 360 409 433 586 815 1040 1670 3000
2020-07-28 05:15 1.09 716 3540 (1957) 312 (1962) 825 331 360 409 433 586 815 1040 1670 3000
2020-07-28 04:15 1.08 712 3540 (1957) 312 (1962) 825 331 360 409 433 586 815 1040 1670 3000
2020-07-28 03:15 1.08 712 3540 (1957) 312 (1962) 825 331 360 409 433 586 815 1040 1670 3000
2020-07-28 02:15 1.07 709 3540 (1957) 312 (1962) 825 331 360 409 433 586 815 1040 1670 3000
2020-07-28 01:15 1.08 712 3540 (1957) 312 (1962) 825 331 360 409 433 586 815 1040 1670 3000
2020-07-28 00:15 1.08 712 3540 (1957) 312 (1962) 825 331 360 409 433 586 815 1040 1670 3000
2020-07-27 23:15 1.08 712 3500 (1957) 312 (1962) 840 333 375 417 432 581 943 1030 1670 3130
2020-07-27 22:15 1.09 716 3500 (1957) 312 (1962) 840 333 375 417 432 581 943 1030 1670 3130
2020-07-27 21:15 1.08 712 3500 (1957) 312 (1962) 840 333 375 417 432 581 943 1030 1670 3130
2020-07-27 20:15 1.09 716 3500 (1957) 312 (1962) 840 333 375 417 432 581 943 1030 1670 3130
2020-07-27 19:15 1.08 712 3500 (1957) 312 (1962) 840 333 375 417 432 581 943 1030 1670 3130
2020-07-27 18:15 1.09 716 3500 (1957) 312 (1962) 840 333 375 417 432 581 943 1030 1670 3130
2020-07-27 17:15 1.08 712 3500 (1957) 312 (1962) 840 333 375 417 432 581 943 1030 1670 3130
2020-07-27 16:15 1.09 716 3500 (1957) 312 (1962) 840 333 375 417 432 581 943 1030 1670 3130
2020-07-27 15:15 1.09 716 3500 (1957) 312 (1962) 840 333 375 417 432 581 943 1030 1670 3130
2020-07-27 14:15 1.09 716 3500 (1957) 312 (1962) 840 333 375 417 432 581 943 1030 1670 3130
2020-07-27 13:15 1.09 716 3500 (1957) 312 (1962) 840 333 375 417 432 581 943 1030 1670 3130
2020-07-27 12:15 1.09 716 3500 (1957) 312 (1962) 840 333 375 417 432 581 943 1030 1670 3130
2020-07-27 11:15 1.10 719 3500 (1957) 312 (1962) 840 333 375 417 432 581 943 1030 1670 3130
2020-07-27 10:15 1.10 719 3500 (1957) 312 (1962) 840 333 375 417 432 581 943 1030 1670 3130
2020-07-27 09:15 1.09 716 3500 (1957) 312 (1962) 840 333 375 417 432 581 943 1030 1670 3130
2020-07-27 08:15 1.11 722 3500 (1957) 312 (1962) 840 333 375 417 432 581 943 1030 1670 3130
2020-07-27 07:15 1.11 722 3500 (1957) 312 (1962) 840 333 375 417 432 581 943 1030 1670 3130
2020-07-27 06:15 1.11 722 3500 (1957) 312 (1962) 840 333 375 417 432 581 943 1030 1670 3130
2020-07-27 05:15 1.11 722 3500 (1957) 312 (1962) 840 333 375 417 432 581 943 1030 1670 3130
2020-07-27 04:15 1.11 722 3500 (1957) 312 (1962) 840 333 375 417 432 581 943 1030 1670 3130
2020-07-27 03:15 1.12 726 3500 (1957) 312 (1962) 840 333 375 417 432 581 943 1030 1670 3130
2020-07-27 02:15 1.11 722 3500 (1957) 312 (1962) 840 333 375 417 432 581 943 1030 1670 3130
2020-07-27 01:15 1.11 722 3500 (1957) 312 (1962) 840 333 375 417 432 581 943 1030 1670 3130
2020-07-27 00:15 1.12 726 3500 (1957) 312 (1962) 840 333 375 417 432 581 943 1030 1670 3130
2020-07-26 23:15 1.12 726 3670 (2002) 315 (2012) 838 326 359 420 451 553 873 1020 1750 3100
2020-07-26 22:15 1.14 733 3670 (2002) 315 (2012) 838 326 359 420 451 553 873 1020 1750 3100
2020-07-26 21:15 1.13 729 3670 (2002) 315 (2012) 838 326 359 420 451 553 873 1020 1750 3100
2020-07-26 20:15 1.12 726 3670 (2002) 315 (2012) 838 326 359 420 451 553 873 1020 1750 3100
2020-07-26 19:15 1.12 726 3670 (2002) 315 (2012) 838 326 359 420 451 553 873 1020 1750 3100
2020-07-26 18:15 1.14 733 3670 (2002) 315 (2012) 838 326 359 420 451 553 873 1020 1750 3100
2020-07-26 17:15 1.13 729 3670 (2002) 315 (2012) 838 326 359 420 451 553 873 1020 1750 3100
2020-07-26 16:15 1.14 733 3670 (2002) 315 (2012) 838 326 359 420 451 553 873 1020 1750 3100
2020-07-26 15:15 1.14 733 3670 (2002) 315 (2012) 838 326 359 420 451 553 873 1020 1750 3100
2020-07-26 14:15 1.14 733 3670 (2002) 315 (2012) 838 326 359 420 451 553 873 1020 1750 3100
2020-07-26 13:15 1.14 733 3670 (2002) 315 (2012) 838 326 359 420 451 553 873 1020 1750 3100
2020-07-26 12:15 1.15 736 3670 (2002) 315 (2012) 838 326 359 420 451 553 873 1020 1750 3100
2020-07-26 11:15 1.15 736 3670 (2002) 315 (2012) 838 326 359 420 451 553 873 1020 1750 3100
2020-07-26 10:15 1.16 739 3670 (2002) 315 (2012) 838 326 359 420 451 553 873 1020 1750 3100
2020-07-26 09:15 1.17 743 3670 (2002) 315 (2012) 838 326 359 420 451 553 873 1020 1750 3100
2020-07-26 08:15 1.18 746 3670 (2002) 315 (2012) 838 326 359 420 451 553 873 1020 1750 3100
2020-07-26 07:15 1.17 743 3670 (2002) 315 (2012) 838 326 359 420 451 553 873 1020 1750 3100
2020-07-26 06:15 1.18 746 3670 (2002) 315 (2012) 838 326 359 420 451 553 873 1020 1750 3100
2020-07-26 05:15 1.18 746 3670 (2002) 315 (2012) 838 326 359 420 451 553 873 1020 1750 3100
2020-07-26 04:15 1.20 753 3670 (2002) 315 (2012) 838 326 359 420 451 553 873 1020 1750 3100
2020-07-26 03:15 1.20 753 3670 (2002) 315 (2012) 838 326 359 420 451 553 873 1020 1750 3100
2020-07-26 02:15 1.21 756 3670 (2002) 315 (2012) 838 326 359 420 451 553 873 1020 1750 3100
2020-07-26 01:15 1.21 756 3670 (2002) 315 (2012) 838 326 359 420 451 553 873 1020 1750 3100
2020-07-26 00:15 1.22 760 3670 (2002) 315 (2012) 838 326 359 420 451 553 873 1020 1750 3100
2020-07-25 23:15 1.24 766 3830 (2002) 312 (2012) 859 331 364 399 452 580 885 1100 1780 3180
2020-07-25 22:15 1.24 766 3830 (2002) 312 (2012) 859 331 364 399 452 580 885 1100 1780 3180
2020-07-25 21:15 1.26 773 3830 (2002) 312 (2012) 859 331 364 399 452 580 885 1100 1780 3180
2020-07-25 20:15 1.27 777 3830 (2002) 312 (2012) 859 331 364 399 452 580 885 1100 1780 3180
2020-07-25 19:15 1.28 780 3830 (2002) 312 (2012) 859 331 364 399 452 580 885 1100 1780 3180
2020-07-25 18:15 1.29 783 3830 (2002) 312 (2012) 859 331 364 399 452 580 885 1100 1780 3180
2020-07-25 17:15 1.32 793 3830 (2002) 312 (2012) 859 331 364 399 452 580 885 1100 1780 3180
2020-07-25 16:15 1.33 797 3830 (2002) 312 (2012) 859 331 364 399 452 580 885 1100 1780 3180
2020-07-25 15:15 1.35 804 3830 (2002) 312 (2012) 859 331 364 399 452 580 885 1100 1780 3180
2020-07-25 14:15 1.37 810 3830 (2002) 312 (2012) 859 331 364 399 452 580 885 1100 1780 3180
2020-07-25 13:15 1.40 821 3830 (2002) 312 (2012) 859 331 364 399 452 580 885 1100 1780 3180
2020-07-25 12:15 1.43 831 3830 (2002) 312 (2012) 859 331 364 399 452 580 885 1100 1780 3180
2020-07-25 11:15 1.45 838 3830 (2002) 312 (2012) 859 331 364 399 452 580 885 1100 1780 3180
2020-07-25 10:15 1.48 848 3830 (2002) 312 (2012) 859 331 364 399 452 580 885 1100 1780 3180
2020-07-25 09:15 1.51 858 3830 (2002) 312 (2012) 859 331 364 399 452 580 885 1100 1780 3180
2020-07-25 08:15 1.53 865 3830 (2002) 312 (2012) 859 331 364 399 452 580 885 1100 1780 3180
2020-07-25 07:15 1.55 872 3830 (2002) 312 (2012) 859 331 364 399 452 580 885 1100 1780 3180
2020-07-25 06:15 1.56 875 3830 (2002) 312 (2012) 859 331 364 399 452 580 885 1100 1780 3180
2020-07-25 05:15 1.59 886 3830 (2002) 312 (2012) 859 331 364 399 452 580 885 1100 1780 3180
2020-07-25 04:15 1.60 889 3830 (2002) 312 (2012) 859 331 364 399 452 580 885 1100 1780 3180
2020-07-25 03:15 1.60 889 3830 (2002) 312 (2012) 859 331 364 399 452 580 885 1100 1780 3180
2020-07-25 02:15 1.60 889 3830 (2002) 312 (2012) 859 331 364 399 452 580 885 1100 1780 3180
2020-07-25 01:15 1.61 892 3830 (2002) 312 (2012) 859 331 364 399 452 580 885 1100 1780 3180
2020-07-25 00:15 1.61 892 3830 (2002) 312 (2012) 859 331 364 399 452 580 885 1100 1780 3180
2020-07-24 23:15 1.61 892 3840 (2002) 314 (1962) 895 328 358 394 454 623 922 1310 1770 3470
2020-07-24 22:15 1.62 896 3840 (2002) 314 (1962) 895 328 358 394 454 623 922 1310 1770 3470
2020-07-24 21:15 1.62 896 3840 (2002) 314 (1962) 895 328 358 394 454 623 922 1310 1770 3470
2020-07-24 20:15 1.61 892 3840 (2002) 314 (1962) 895 328 358 394 454 623 922 1310 1770 3470
2020-07-24 19:15 1.61 892 3840 (2002) 314 (1962) 895 328 358 394 454 623 922 1310 1770 3470
2020-07-24 18:15 1.60 889 3840 (2002) 314 (1962) 895 328 358 394 454 623 922 1310 1770 3470
2020-07-24 17:15 1.61 892 3840 (2002) 314 (1962) 895 328 358 394 454 623 922 1310 1770 3470
2020-07-24 16:15 1.60 889 3840 (2002) 314 (1962) 895 328 358 394 454 623 922 1310 1770 3470
2020-07-24 15:15 1.60 889 3840 (2002) 314 (1962) 895 328 358 394 454 623 922 1310 1770 3470
2020-07-24 14:15 1.60 889 3840 (2002) 314 (1962) 895 328 358 394 454 623 922 1310 1770 3470
2020-07-24 13:15 1.60 889 3840 (2002) 314 (1962) 895 328 358 394 454 623 922 1310 1770 3470
2020-07-24 12:15 1.59 886 3840 (2002) 314 (1962) 895 328 358 394 454 623 922 1310 1770 3470
2020-07-24 11:15 1.58 882 3840 (2002) 314 (1962) 895 328 358 394 454 623 922 1310 1770 3470
2020-07-24 10:15 1.57 879 3840 (2002) 314 (1962) 895 328 358 394 454 623 922 1310 1770 3470
2020-07-24 09:15 1.59 886 3840 (2002) 314 (1962) 895 328 358 394 454 623 922 1310 1770 3470
2020-07-24 08:15 1.57 879 3840 (2002) 314 (1962) 895 328 358 394 454 623 922 1310 1770 3470
2020-07-24 07:15 1.56 875 3840 (2002) 314 (1962) 895 328 358 394 454 623 922 1310 1770 3470
2020-07-24 06:15 1.56 875 3840 (2002) 314 (1962) 895 328 358 394 454 623 922 1310 1770 3470
2020-07-24 05:15 1.56 875 3840 (2002) 314 (1962) 895 328 358 394 454 623 922 1310 1770 3470
2020-07-24 04:15 1.56 875 3840 (2002) 314 (1962) 895 328 358 394 454 623 922 1310 1770 3470
2020-07-24 03:15 1.55 872 3840 (2002) 314 (1962) 895 328 358 394 454 623 922 1310 1770 3470
2020-07-24 02:15 1.56 875 3840 (2002) 314 (1962) 895 328 358 394 454 623 922 1310 1770 3470
2020-07-24 01:15 1.57 879 3840 (2002) 314 (1962) 895 328 358 394 454 623 922 1310 1770 3470
2020-07-24 00:15 1.57 879 3840 (2002) 314 (1962) 895 328 358 394 454 623 922 1310 1770 3470
2020-07-23 23:15 1.57 879 3820 (2002) 309 (2001) 892 327 358 390 433 606 863 1360 1870 3180
2020-07-23 22:15 1.57 879 3820 (2002) 309 (2001) 892 327 358 390 433 606 863 1360 1870 3180
2020-07-23 21:15 1.58 882 3820 (2002) 309 (2001) 892 327 358 390 433 606 863 1360 1870 3180
2020-07-23 20:15 1.59 886 3820 (2002) 309 (2001) 892 327 358 390 433 606 863 1360 1870 3180
2020-07-23 19:15 1.58 882 3820 (2002) 309 (2001) 892 327 358 390 433 606 863 1360 1870 3180
2020-07-23 18:15 1.57 879 3820 (2002) 309 (2001) 892 327 358 390 433 606 863 1360 1870 3180
2020-07-23 17:15 1.58 882 3820 (2002) 309 (2001) 892 327 358 390 433 606 863 1360 1870 3180
2020-07-23 16:15 1.58 882 3820 (2002) 309 (2001) 892 327 358 390 433 606 863 1360 1870 3180
2020-07-23 15:15 1.56 875 3820 (2002) 309 (2001) 892 327 358 390 433 606 863 1360 1870 3180
2020-07-23 14:15 1.56 875 3820 (2002) 309 (2001) 892 327 358 390 433 606 863 1360 1870 3180
2020-07-23 13:15 1.55 872 3820 (2002) 309 (2001) 892 327 358 390 433 606 863 1360 1870 3180
2020-07-23 12:15 1.54 868 3820 (2002) 309 (2001) 892 327 358 390 433 606 863 1360 1870 3180
2020-07-23 11:15 1.54 868 3820 (2002) 309 (2001) 892 327 358 390 433 606 863 1360 1870 3180
2020-07-23 10:15 1.54 868 3820 (2002) 309 (2001) 892 327 358 390 433 606 863 1360 1870 3180
2020-07-23 09:15 1.54 868 3820 (2002) 309 (2001) 892 327 358 390 433 606 863 1360 1870 3180
2020-07-23 08:15 1.53 865 3820 (2002) 309 (2001) 892 327 358 390 433 606 863 1360 1870 3180
2020-07-23 07:15 1.54 868 3820 (2002) 309 (2001) 892 327 358 390 433 606 863 1360 1870 3180
2020-07-23 06:15 1.55 872 3820 (2002) 309 (2001) 892 327 358 390 433 606 863 1360 1870 3180
2020-07-23 05:15 1.57 879 3820 (2002) 309 (2001) 892 327 358 390 433 606 863 1360 1870 3180
2020-07-23 04:15 1.62 896 3820 (2002) 309 (2001) 892 327 358 390 433 606 863 1360 1870 3180
2020-07-23 03:15 1.65 906 3820 (2002) 309 (2001) 892 327 358 390 433 606 863 1360 1870 3180
2020-07-23 02:15 1.70 923 3820 (2002) 309 (2001) 892 327 358 390 433 606 863 1360 1870 3180
2020-07-23 01:15 1.74 937 3820 (2002) 309 (2001) 892 327 358 390 433 606 863 1360 1870 3180
2020-07-23 00:15 1.77 947 3820 (2002) 309 (2001) 892 327 358 390 433 606 863 1360 1870 3180
2020-07-22 23:15 1.78 951 3840 (2002) 314 (2001) 891 324 359 396 439 624 862 1170 1910 3160
2020-07-22 22:15 1.74 937 3840 (2002) 314 (2001) 891 324 359 396 439 624 862 1170 1910 3160
2020-07-22 21:15 1.68 916 3840 (2002) 314 (2001) 891 324 359 396 439 624 862 1170 1910 3160
2020-07-22 20:15 1.58 882 3840 (2002) 314 (2001) 891 324 359 396 439 624 862 1170 1910 3160
2020-07-22 19:15 1.49 851 3840 (2002) 314 (2001) 891 324 359 396 439 624 862 1170 1910 3160
2020-07-22 18:15 1.44 834 3840 (2002) 314 (2001) 891 324 359 396 439 624 862 1170 1910 3160
2020-07-22 17:15 1.42 827 3840 (2002) 314 (2001) 891 324 359 396 439 624 862 1170 1910 3160
2020-07-22 16:15 1.40 821 3840 (2002) 314 (2001) 891 324 359 396 439 624 862 1170 1910 3160
2020-07-22 15:15 1.40 821 3840 (2002) 314 (2001) 891 324 359 396 439 624 862 1170 1910 3160
2020-07-22 14:15 1.40 821 3840 (2002) 314 (2001) 891 324 359 396 439 624 862 1170 1910 3160
2020-07-22 13:15 1.40 821 3840 (2002) 314 (2001) 891 324 359 396 439 624 862 1170 1910 3160
2020-07-22 12:15 1.41 824 3840 (2002) 314 (2001) 891 324 359 396 439 624 862 1170 1910 3160
2020-07-22 11:15 1.40 821 3840 (2002) 314 (2001) 891 324 359 396 439 624 862 1170 1910 3160
2020-07-22 10:15 1.40 821 3840 (2002) 314 (2001) 891 324 359 396 439 624 862 1170 1910 3160
2020-07-22 09:15 1.40 821 3840 (2002) 314 (2001) 891 324 359 396 439 624 862 1170 1910 3160
2020-07-22 08:15 1.39 817 3840 (2002) 314 (2001) 891 324 359 396 439 624 862 1170 1910 3160
2020-07-22 07:15 1.40 821 3840 (2002) 314 (2001) 891 324 359 396 439 624 862 1170 1910 3160
2020-07-22 06:15 1.39 817 3840 (2002) 314 (2001) 891 324 359 396 439 624 862 1170 1910 3160
2020-07-22 05:15 1.39 817 3840 (2002) 314 (2001) 891 324 359 396 439 624 862 1170 1910 3160
2020-07-22 04:15 1.39 817 3840 (2002) 314 (2001) 891 324 359 396 439 624 862 1170 1910 3160
2020-07-22 03:15 1.37 810 3840 (2002) 314 (2001) 891 324 359 396 439 624 862 1170 1910 3160
2020-07-22 02:15 1.37 810 3840 (2002) 314 (2001) 891 324 359 396 439 624 862 1170 1910 3160
2020-07-22 01:15 1.37 810 3840 (2002) 314 (2001) 891 324 359 396 439 624 862 1170 1910 3160
2020-07-22 00:15 1.36 807 3840 (2002) 314 (2001) 891 324 359 396 439 624 862 1170 1910 3160
2020-07-21 23:15 1.35 804 3880 (2002) 281 (1954) 907 323 363 382 445 596 879 1280 1960 3260
2020-07-21 22:15 1.35 804 3880 (2002) 281 (1954) 907 323 363 382 445 596 879 1280 1960 3260
2020-07-21 21:15 1.34 800 3880 (2002) 281 (1954) 907 323 363 382 445 596 879 1280 1960 3260
2020-07-21 20:15 1.33 797 3880 (2002) 281 (1954) 907 323 363 382 445 596 879 1280 1960 3260
2020-07-21 19:15 1.31 790 3880 (2002) 281 (1954) 907 323 363 382 445 596 879 1280 1960 3260
2020-07-21 18:15 1.30 787 3880 (2002) 281 (1954) 907 323 363 382 445 596 879 1280 1960 3260
2020-07-21 17:15 1.29 783 3880 (2002) 281 (1954) 907 323 363 382 445 596 879 1280 1960 3260
2020-07-21 16:15 1.28 780 3880 (2002) 281 (1954) 907 323 363 382 445 596 879 1280 1960 3260
2020-07-21 15:15 1.27 777 3880 (2002) 281 (1954) 907 323 363 382 445 596 879 1280 1960 3260
2020-07-21 14:15 1.25 770 3880 (2002) 281 (1954) 907 323 363 382 445 596 879 1280 1960 3260
2020-07-21 13:15 1.24 766 3880 (2002) 281 (1954) 907 323 363 382 445 596 879 1280 1960 3260
2020-07-21 12:15 1.22 760 3880 (2002) 281 (1954) 907 323 363 382 445 596 879 1280 1960 3260
2020-07-21 11:15 1.21 756 3880 (2002) 281 (1954) 907 323 363 382 445 596 879 1280 1960 3260
2020-07-21 10:15 1.19 749 3880 (2002) 281 (1954) 907 323 363 382 445 596 879 1280 1960 3260
2020-07-21 09:15 1.18 746 3880 (2002) 281 (1954) 907 323 363 382 445 596 879 1280 1960 3260
2020-07-21 08:15 1.17 743 3880 (2002) 281 (1954) 907 323 363 382 445 596 879 1280 1960 3260
2020-07-21 07:15 1.15 736 3880 (2002) 281 (1954) 907 323 363 382 445 596 879 1280 1960 3260
2020-07-21 06:15 1.14 733 3880 (2002) 281 (1954) 907 323 363 382 445 596 879 1280 1960 3260
2020-07-21 05:15 1.12 726 3880 (2002) 281 (1954) 907 323 363 382 445 596 879 1280 1960 3260
2020-07-21 04:15 1.09 716 3880 (2002) 281 (1954) 907 323 363 382 445 596 879 1280 1960 3260
2020-07-21 03:15 1.07 709 3880 (2002) 281 (1954) 907 323 363 382 445 596 879 1280 1960 3260
2020-07-21 02:15 1.04 699 3880 (2002) 281 (1954) 907 323 363 382 445 596 879 1280 1960 3260
2020-07-21 01:15 1.04 699 3880 (2002) 281 (1954) 907 323 363 382 445 596 879 1280 1960 3260
2020-07-21 00:15 1.03 695 3880 (2002) 281 (1954) 907 323 363 382 445 596 879 1280 1960 3260
2020-07-20 23:15 1.02 692 3890 (2002) 263 (1954) 917 338 369 389 418 598 960 1240 1970 3190
2020-07-20 22:15 1.01 689 3890 (2002) 263 (1954) 917 338 369 389 418 598 960 1240 1970 3190
2020-07-20 21:15 1.00 685 3890 (2002) 263 (1954) 917 338 369 389 418 598 960 1240 1970 3190
2020-07-20 20:15 1.00 685 3890 (2002) 263 (1954) 917 338 369 389 418 598 960 1240 1970 3190
2020-07-20 19:15 1.02 692 3890 (2002) 263 (1954) 917 338 369 389 418 598 960 1240 1970 3190
2020-07-20 18:15 1.01 689 3890 (2002) 263 (1954) 917 338 369 389 418 598 960 1240 1970 3190
2020-07-20 17:15 1.02 692 3890 (2002) 263 (1954) 917 338 369 389 418 598 960 1240 1970 3190
2020-07-20 16:15 1.02 692 3890 (2002) 263 (1954) 917 338 369 389 418 598 960 1240 1970 3190
2020-07-20 15:15 1.01 689 3890 (2002) 263 (1954) 917 338 369 389 418 598 960 1240 1970 3190
2020-07-20 14:15 1.02 692 3890 (2002) 263 (1954) 917 338 369 389 418 598 960 1240 1970 3190
2020-07-20 13:15 1.02 692 3890 (2002) 263 (1954) 917 338 369 389 418 598 960 1240 1970 3190
2020-07-20 12:15 1.03 695 3890 (2002) 263 (1954) 917 338 369 389 418 598 960 1240 1970 3190
2020-07-20 11:15 1.02 692 3890 (2002) 263 (1954) 917 338 369 389 418 598 960 1240 1970 3190
2020-07-20 10:15 1.03 695 3890 (2002) 263 (1954) 917 338 369 389 418 598 960 1240 1970 3190
2020-07-20 09:15 1.03 695 3890 (2002) 263 (1954) 917 338 369 389 418 598 960 1240 1970 3190
2020-07-20 08:15 1.03 695 3890 (2002) 263 (1954) 917 338 369 389 418 598 960 1240 1970 3190
2020-07-20 07:15 1.03 695 3890 (2002) 263 (1954) 917 338 369 389 418 598 960 1240 1970 3190
2020-07-20 06:15 1.03 695 3890 (2002) 263 (1954) 917 338 369 389 418 598 960 1240 1970 3190
2020-07-20 05:15 1.04 699 3890 (2002) 263 (1954) 917 338 369 389 418 598 960 1240 1970 3190
2020-07-20 04:15 1.04 699 3890 (2002) 263 (1954) 917 338 369 389 418 598 960 1240 1970 3190
2020-07-20 03:15 1.04 699 3890 (2002) 263 (1954) 917 338 369 389 418 598 960 1240 1970 3190
2020-07-20 02:15 1.04 699 3890 (2002) 263 (1954) 917 338 369 389 418 598 960 1240 1970 3190
2020-07-20 01:15 1.05 702 3890 (2002) 263 (1954) 917 338 369 389 418 598 960 1240 1970 3190
2020-07-20 00:15 1.05 702 3890 (2002) 263 (1954) 917 338 369 389 418 598 960 1240 1970 3190
2020-07-19 23:15 1.06 706 3870 (2002) 263 (1954) 915 358 375 409 428 619 961 1150 2220 3220
2020-07-19 22:15 1.06 706 3870 (2002) 263 (1954) 915 358 375 409 428 619 961 1150 2220 3220
2020-07-19 21:15 1.06 706 3870 (2002) 263 (1954) 915 358 375 409 428 619 961 1150 2220 3220
2020-07-19 20:15 1.06 706 3870 (2002) 263 (1954) 915 358 375 409 428 619 961 1150 2220 3220
2020-07-19 19:15 1.07 709 3870 (2002) 263 (1954) 915 358 375 409 428 619 961 1150 2220 3220
2020-07-19 18:15 1.07 709 3870 (2002) 263 (1954) 915 358 375 409 428 619 961 1150 2220 3220
2020-07-19 17:15 1.05 702 3870 (2002) 263 (1954) 915 358 375 409 428 619 961 1150 2220 3220
2020-07-19 16:15 1.07 709 3870 (2002) 263 (1954) 915 358 375 409 428 619 961 1150 2220 3220
2020-07-19 15:15 1.07 709 3870 (2002) 263 (1954) 915 358 375 409 428 619 961 1150 2220 3220
2020-07-19 14:15 1.08 712 3870 (2002) 263 (1954) 915 358 375 409 428 619 961 1150 2220 3220
2020-07-19 13:15 1.08 712 3870 (2002) 263 (1954) 915 358 375 409 428 619 961 1150 2220 3220
2020-07-19 12:15 1.08 712 3870 (2002) 263 (1954) 915 358 375 409 428 619 961 1150 2220 3220
2020-07-19 11:15 1.08 712 3870 (2002) 263 (1954) 915 358 375 409 428 619 961 1150 2220 3220
2020-07-19 10:15 1.09 716 3870 (2002) 263 (1954) 915 358 375 409 428 619 961 1150 2220 3220
2020-07-19 09:15 1.09 716 3870 (2002) 263 (1954) 915 358 375 409 428 619 961 1150 2220 3220
2020-07-19 08:15 1.10 719 3870 (2002) 263 (1954) 915 358 375 409 428 619 961 1150 2220 3220
2020-07-19 07:15 1.09 716 3870 (2002) 263 (1954) 915 358 375 409 428 619 961 1150 2220 3220
2020-07-19 06:15 1.10 719 3870 (2002) 263 (1954) 915 358 375 409 428 619 961 1150 2220 3220
2020-07-19 05:15 1.11 722 3870 (2002) 263 (1954) 915 358 375 409 428 619 961 1150 2220 3220
2020-07-19 04:15 1.11 722 3870 (2002) 263 (1954) 915 358 375 409 428 619 961 1150 2220 3220
2020-07-19 03:15 1.11 722 3870 (2002) 263 (1954) 915 358 375 409 428 619 961 1150 2220 3220
2020-07-19 02:15 1.12 726 3870 (2002) 263 (1954) 915 358 375 409 428 619 961 1150 2220 3220
2020-07-19 01:15 1.13 729 3870 (2002) 263 (1954) 915 358 375 409 428 619 961 1150 2220 3220
2020-07-19 00:15 1.13 729 3870 (2002) 263 (1954) 915 358 375 409 428 619 961 1150 2220 3220
2020-07-18 23:15 1.14 733 3860 (2002) 265 (1954) 912 343 375 417 458 606 827 1200 2000 3320
2020-07-18 22:15 1.14 733 3860 (2002) 265 (1954) 912 343 375 417 458 606 827 1200 2000 3320
2020-07-18 21:15 1.15 736 3860 (2002) 265 (1954) 912 343 375 417 458 606 827 1200 2000 3320
2020-07-18 20:15 1.16 739 3860 (2002) 265 (1954) 912 343 375 417 458 606 827 1200 2000 3320
2020-07-18 19:15 1.16 739 3860 (2002) 265 (1954) 912 343 375 417 458 606 827 1200 2000 3320
2020-07-18 18:15 1.18 746 3860 (2002) 265 (1954) 912 343 375 417 458 606 827 1200 2000 3320
2020-07-18 17:15 1.19 749 3860 (2002) 265 (1954) 912 343 375 417 458 606 827 1200 2000 3320
2020-07-18 16:15 1.19 749 3860 (2002) 265 (1954) 912 343 375 417 458 606 827 1200 2000 3320
2020-07-18 15:15 1.21 756 3860 (2002) 265 (1954) 912 343 375 417 458 606 827 1200 2000 3320
2020-07-18 14:15 1.21 756 3860 (2002) 265 (1954) 912 343 375 417 458 606 827 1200 2000 3320
2020-07-18 13:15 1.24 766 3860 (2002) 265 (1954) 912 343 375 417 458 606 827 1200 2000 3320
2020-07-18 12:15 1.24 766 3860 (2002) 265 (1954) 912 343 375 417 458 606 827 1200 2000 3320
2020-07-18 11:15 1.26 773 3860 (2002) 265 (1954) 912 343 375 417 458 606 827 1200 2000 3320
2020-07-18 10:15 1.27 777 3860 (2002) 265 (1954) 912 343 375 417 458 606 827 1200 2000 3320
2020-07-18 09:15 1.30 787 3860 (2002) 265 (1954) 912 343 375 417 458 606 827 1200 2000 3320
2020-07-18 08:15 1.30 787 3860 (2002) 265 (1954) 912 343 375 417 458 606 827 1200 2000 3320
2020-07-18 07:15 1.32 793 3860 (2002) 265 (1954) 912 343 375 417 458 606 827 1200 2000 3320
2020-07-18 06:15 1.33 797 3860 (2002) 265 (1954) 912 343 375 417 458 606 827 1200 2000 3320
2020-07-18 05:15 1.33 797 3860 (2002) 265 (1954) 912 343 375 417 458 606 827 1200 2000 3320
2020-07-18 04:15 1.32 793 3860 (2002) 265 (1954) 912 343 375 417 458 606 827 1200 2000 3320
2020-07-18 03:15 1.31 790 3860 (2002) 265 (1954) 912 343 375 417 458 606 827 1200 2000 3320
2020-07-18 02:15 1.29 783 3860 (2002) 265 (1954) 912 343 375 417 458 606 827 1200 2000 3320
2020-07-18 01:15 1.27 777 3860 (2002) 265 (1954) 912 343 375 417 458 606 827 1200 2000 3320
2020-07-18 00:15 1.25 770 3860 (2002) 265 (1954) 912 343 375 417 458 606 827 1200 2000 3320
2020-07-17 23:15 1.21 756 3870 (2015) 268 (1954) 914 339 378 410 469 653 815 1210 1950 3290
2020-07-17 22:15 1.20 753 3870 (2015) 268 (1954) 914 339 378 410 469 653 815 1210 1950 3290
2020-07-17 21:15 1.19 749 3870 (2015) 268 (1954) 914 339 378 410 469 653 815 1210 1950 3290
2020-07-17 20:15 1.18 746 3870 (2015) 268 (1954) 914 339 378 410 469 653 815 1210 1950 3290
2020-07-17 19:15 1.20 753 3870 (2015) 268 (1954) 914 339 378 410 469 653 815 1210 1950 3290
2020-07-17 18:15 1.21 756 3870 (2015) 268 (1954) 914 339 378 410 469 653 815 1210 1950 3290
2020-07-17 17:15 1.23 763 3870 (2015) 268 (1954) 914 339 378 410 469 653 815 1210 1950 3290
2020-07-17 16:15 1.24 766 3870 (2015) 268 (1954) 914 339 378 410 469 653 815 1210 1950 3290
2020-07-17 15:15 1.25 770 3870 (2015) 268 (1954) 914 339 378 410 469 653 815 1210 1950 3290
2020-07-17 14:15 1.11 722 3870 (2015) 268 (1954) 914 339 378 410 469 653 815 1210 1950 3290
2020-07-17 13:15 1.08 712 3870 (2015) 268 (1954) 914 339 378 410 469 653 815 1210 1950 3290
2020-07-17 12:15 1.08 712 3870 (2015) 268 (1954) 914 339 378 410 469 653 815 1210 1950 3290
2020-07-17 11:15 1.08 712 3870 (2015) 268 (1954) 914 339 378 410 469 653 815 1210 1950 3290
2020-07-17 10:15 1.08 712 3870 (2015) 268 (1954) 914 339 378 410 469 653 815 1210 1950 3290
2020-07-17 09:15 1.09 716 3870 (2015) 268 (1954) 914 339 378 410 469 653 815 1210 1950 3290
2020-07-17 08:15 1.09 716 3870 (2015) 268 (1954) 914 339 378 410 469 653 815 1210 1950 3290
2020-07-17 07:15 1.09 716 3870 (2015) 268 (1954) 914 339 378 410 469 653 815 1210 1950 3290
2020-07-17 06:15 1.08 712 3870 (2015) 268 (1954) 914 339 378 410 469 653 815 1210 1950 3290
2020-07-17 05:15 1.09 716 3870 (2015) 268 (1954) 914 339 378 410 469 653 815 1210 1950 3290
2020-07-17 04:15 1.10 719 3870 (2015) 268 (1954) 914 339 378 410 469 653 815 1210 1950 3290
2020-07-17 03:15 1.10 719 3870 (2015) 268 (1954) 914 339 378 410 469 653 815 1210 1950 3290
2020-07-17 02:15 1.10 719 3870 (2015) 268 (1954) 914 339 378 410 469 653 815 1210 1950 3290
2020-07-17 01:15 1.10 719 3870 (2015) 268 (1954) 914 339 378 410 469 653 815 1210 1950 3290
2020-07-17 00:15 1.10 719 3870 (2015) 268 (1954) 914 339 378 410 469 653 815 1210 1950 3290
2020-07-16 23:15 1.11 722 3940 (2015) 276 (1954) 945 335 368 416 463 679 985 1430 2180 3240
2020-07-16 22:15 1.11 722 3940 (2015) 276 (1954) 945 335 368 416 463 679 985 1430 2180 3240
2020-07-16 21:15 1.12 726 3940 (2015) 276 (1954) 945 335 368 416 463 679 985 1430 2180 3240
2020-07-16 20:15 1.11 722 3940 (2015) 276 (1954) 945 335 368 416 463 679 985 1430 2180 3240
2020-07-16 19:15 1.11 722 3940 (2015) 276 (1954) 945 335 368 416 463 679 985 1430 2180 3240
2020-07-16 18:15 1.11 722 3940 (2015) 276 (1954) 945 335 368 416 463 679 985 1430 2180 3240
2020-07-16 17:15 1.11 722 3940 (2015) 276 (1954) 945 335 368 416 463 679 985 1430 2180 3240
2020-07-16 16:15 1.13 729 3940 (2015) 276 (1954) 945 335 368 416 463 679 985 1430 2180 3240
2020-07-16 15:15 1.12 726 3940 (2015) 276 (1954) 945 335 368 416 463 679 985 1430 2180 3240
2020-07-16 14:15 1.14 733 3940 (2015) 276 (1954) 945 335 368 416 463 679 985 1430 2180 3240
2020-07-16 13:15 1.14 733 3940 (2015) 276 (1954) 945 335 368 416 463 679 985 1430 2180 3240
2020-07-16 12:15 1.15 736 3940 (2015) 276 (1954) 945 335 368 416 463 679 985 1430 2180 3240
2020-07-16 11:15 1.15 736 3940 (2015) 276 (1954) 945 335 368 416 463 679 985 1430 2180 3240
2020-07-16 10:15 1.15 736 3940 (2015) 276 (1954) 945 335 368 416 463 679 985 1430 2180 3240
2020-07-16 09:15 1.16 739 3940 (2015) 276 (1954) 945 335 368 416 463 679 985 1430 2180 3240
2020-07-16 08:15 1.16 739 3940 (2015) 276 (1954) 945 335 368 416 463 679 985 1430 2180 3240
2020-07-16 07:15 1.17 743 3940 (2015) 276 (1954) 945 335 368 416 463 679 985 1430 2180 3240
2020-07-16 06:15 1.17 743 3940 (2015) 276 (1954) 945 335 368 416 463 679 985 1430 2180 3240
2020-07-16 05:15 1.17 743 3940 (2015) 276 (1954) 945 335 368 416 463 679 985 1430 2180 3240
2020-07-16 04:15 1.18 746 3940 (2015) 276 (1954) 945 335 368 416 463 679 985 1430 2180 3240
2020-07-16 03:15 1.17 743 3940 (2015) 276 (1954) 945 335 368 416 463 679 985 1430 2180 3240
2020-07-16 02:15 1.17 743 3940 (2015) 276 (1954) 945 335 368 416 463 679 985 1430 2180 3240
2020-07-16 01:15 1.18 746 3940 (2015) 276 (1954) 945 335 368 416 463 679 985 1430 2180 3240
2020-07-16 00:15 1.19 749 3940 (2015) 276 (1954) 945 335 368 416 463 679 985 1430 2180 3240
2020-07-15 23:15 1.19 749 4000 (2015) 284 (1954) 950 346 381 418 428 668 1060 1410 1960 3460
2020-07-15 22:15 1.20 753 4000 (2015) 284 (1954) 950 346 381 418 428 668 1060 1410 1960 3460
2020-07-15 21:15 1.19 749 4000 (2015) 284 (1954) 950 346 381 418 428 668 1060 1410 1960 3460
2020-07-15 20:15 1.20 753 4000 (2015) 284 (1954) 950 346 381 418 428 668 1060 1410 1960 3460
2020-07-15 19:15 1.20 753 4000 (2015) 284 (1954) 950 346 381 418 428 668 1060 1410 1960 3460
2020-07-15 18:15 1.20 753 4000 (2015) 284 (1954) 950 346 381 418 428 668 1060 1410 1960 3460
2020-07-15 17:15 1.20 753 4000 (2015) 284 (1954) 950 346 381 418 428 668 1060 1410 1960 3460
2020-07-15 16:15 1.19 749 4000 (2015) 284 (1954) 950 346 381 418 428 668 1060 1410 1960 3460
2020-07-15 15:15 1.20 753 4000 (2015) 284 (1954) 950 346 381 418 428 668 1060 1410 1960 3460
2020-07-15 14:15 1.21 756 4000 (2015) 284 (1954) 950 346 381 418 428 668 1060 1410 1960 3460
2020-07-15 13:15 1.21 756 4000 (2015) 284 (1954) 950 346 381 418 428 668 1060 1410 1960 3460
2020-07-15 12:15 1.22 760 4000 (2015) 284 (1954) 950 346 381 418 428 668 1060 1410 1960 3460
2020-07-15 11:15 1.22 760 4000 (2015) 284 (1954) 950 346 381 418 428 668 1060 1410 1960 3460
2020-07-15 10:15 1.22 760 4000 (2015) 284 (1954) 950 346 381 418 428 668 1060 1410 1960 3460
2020-07-15 09:15 1.22 760 4000 (2015) 284 (1954) 950 346 381 418 428 668 1060 1410 1960 3460
2020-07-15 08:15 1.22 760 4000 (2015) 284 (1954) 950 346 381 418 428 668 1060 1410 1960 3460
2020-07-15 07:15 1.22 760 4000 (2015) 284 (1954) 950 346 381 418 428 668 1060 1410 1960 3460
2020-07-15 06:15 1.23 763 4000 (2015) 284 (1954) 950 346 381 418 428 668 1060 1410 1960 3460
2020-07-15 05:15 1.23 763 4000 (2015) 284 (1954) 950 346 381 418 428 668 1060 1410 1960 3460
2020-07-15 04:15 1.23 763 4000 (2015) 284 (1954) 950 346 381 418 428 668 1060 1410 1960 3460
2020-07-15 03:15 1.23 763 4000 (2015) 284 (1954) 950 346 381 418 428 668 1060 1410 1960 3460
2020-07-15 02:15 1.23 763 4000 (2015) 284 (1954) 950 346 381 418 428 668 1060 1410 1960 3460
2020-07-15 01:15 1.23 763 4000 (2015) 284 (1954) 950 346 381 418 428 668 1060 1410 1960 3460
2020-07-15 00:15 1.25 770 4000 (2015) 284 (1954) 950 346 381 418 428 668 1060 1410 1960 3460
2020-07-14 23:15 1.24 766 3940 (2015) 284 (1954) 952 326 375 412 423 616 1010 1320 1990 3600
2020-07-14 22:15 1.25 770 3940 (2015) 284 (1954) 952 326 375 412 423 616 1010 1320 1990 3600
2020-07-14 21:15 1.26 773 3940 (2015) 284 (1954) 952 326 375 412 423 616 1010 1320 1990 3600
2020-07-14 20:15 1.26 773 3940 (2015) 284 (1954) 952 326 375 412 423 616 1010 1320 1990 3600
2020-07-14 19:15 1.25 770 3940 (2015) 284 (1954) 952 326 375 412 423 616 1010 1320 1990 3600
2020-07-14 18:15 1.26 773 3940 (2015) 284 (1954) 952 326 375 412 423 616 1010 1320 1990 3600
2020-07-14 17:15 1.26 773 3940 (2015) 284 (1954) 952 326 375 412 423 616 1010 1320 1990 3600
2020-07-14 16:15 1.27 777 3940 (2015) 284 (1954) 952 326 375 412 423 616 1010 1320 1990 3600
2020-07-14 15:15 1.28 780 3940 (2015) 284 (1954) 952 326 375 412 423 616 1010 1320 1990 3600
2020-07-14 14:15 1.29 783 3940 (2015) 284 (1954) 952 326 375 412 423 616 1010 1320 1990 3600
2020-07-14 13:15 1.28 780 3940 (2015) 284 (1954) 952 326 375 412 423 616 1010 1320 1990 3600
2020-07-14 12:15 1.29 783 3940 (2015) 284 (1954) 952 326 375 412 423 616 1010 1320 1990 3600
2020-07-14 11:15 1.30 787 3940 (2015) 284 (1954) 952 326 375 412 423 616 1010 1320 1990 3600
2020-07-14 10:15 1.31 790 3940 (2015) 284 (1954) 952 326 375 412 423 616 1010 1320 1990 3600
2020-07-14 09:15 1.32 793 3940 (2015) 284 (1954) 952 326 375 412 423 616 1010 1320 1990 3600
2020-07-14 08:15 1.33 797 3940 (2015) 284 (1954) 952 326 375 412 423 616 1010 1320 1990 3600
2020-07-14 07:15 1.32 793 3940 (2015) 284 (1954) 952 326 375 412 423 616 1010 1320 1990 3600
2020-07-14 06:15 1.33 797 3940 (2015) 284 (1954) 952 326 375 412 423 616 1010 1320 1990 3600
2020-07-14 05:15 1.33 797 3940 (2015) 284 (1954) 952 326 375 412 423 616 1010 1320 1990 3600
2020-07-14 04:15 1.33 797 3940 (2015) 284 (1954) 952 326 375 412 423 616 1010 1320 1990 3600
2020-07-14 03:15 1.33 797 3940 (2015) 284 (1954) 952 326 375 412 423 616 1010 1320 1990 3600
2020-07-14 02:15 1.34 800 3940 (2015) 284 (1954) 952 326 375 412 423 616 1010 1320 1990 3600
2020-07-14 01:15 1.33 797 3940 (2015) 284 (1954) 952 326 375 412 423 616 1010 1320 1990 3600
2020-07-14 00:15 1.34 800 3940 (2015) 284 (1954) 952 326 375 412 423 616 1010 1320 1990 3600

A total of 750 rows are displayed for years 1949 through 2019.